Grand Ruby — 3EIU3 — position and weather

sailwx.info

Track history (hours):
 
Tides and Currents Weather Stations Pressure Air Temp Water Temp Dewpoint Dewpoint Depression Visibility Wind Speed Wind Dir Waves Ship Positions

Grand Ruby

Last reported at 2014-Nov-21 11:27 UTC. Time now 2014-Nov-29 02:30 UTC.
Position N 47°33' W 005°38'.

Length 200 m; draft 9.3 m.

Type: Cargo ship. MMSI: 372399000.

Date/timePositionNaut miles runAvg speedWind from/ knotsBaromVisibWave heightAir tempDewpointWater temp
2014-Nov-21 11:27N 47°33' W 005°38'1516.4
2014-Nov-21 10:33N 47°47' W 005°45'1615.9
2014-Nov-21 09:33N 48°03' W 005°52'16515.0
2014-Nov-20 22:32N 50°00' W 002°56'1717.7
2014-Nov-20 21:33N 50°05' W 002°30'2216.0
2014-Nov-20 20:10N 50°11' W 001°56'2514.2
2014-Nov-20 18:23N 50°21' W 001°20'1214.6
2014-Nov-20 17:33N 50°30' W 001°07'1211.9
2014-Nov-20 16:33N 50°41' W 000°58'1110.6
2014-Nov-20 15:34N 50°46' W 001°13'8 8.1
2014-Nov-20 14:33N 50°52' W 001°22'2 2.1
2014-Nov-20 13:31N 50°53' W 001°24'0 0.0
2014-Nov-20 12:31N 50°53' W 001°24'0 0.0
2014-Nov-20 11:31N 50°53' W 001°24'0 0.0
2014-Nov-20 10:31N 50°53' W 001°24'0 0.0
2014-Nov-20 09:31N 50°53' W 001°24'0 0.0
2014-Nov-20 08:31N 50°53' W 001°24'0 0.0
2014-Nov-20 07:31N 50°53' W 001°24'0 0.0
2014-Nov-20 06:31N 50°53' W 001°24'0 0.0
2014-Nov-20 05:31N 50°53' W 001°24'0 0.0
2014-Nov-20 04:31N 50°53' W 001°24'0 0.0
2014-Nov-20 03:31N 50°53' W 001°24'0 0.0
2014-Nov-20 02:31N 50°53' W 001°24'0 0.1
2014-Nov-20 01:33N 50°53' W 001°24'7 6.7
2014-Nov-20 00:33N 50°47' W 001°19'1414.0
2014-Nov-19 23:34N 50°42' W 000°58'1413.8
2014-Nov-19 22:33N 50°36' W 000°39'1918.9
2014-Nov-19 21:33N 50°33' W 000°10'1717.1
2014-Nov-19 20:33N 50°35' E 000°17'1615.8
2014-Nov-19 19:33N 50°40' E 000°41'1616.1
2014-Nov-19 18:33N 50°49' E 001°03'1817.8
2014-Nov-19 17:33N 50°59' E 001°25'2019.8
2014-Nov-19 16:34N 51°14' E 001°47'1514.6
2014-Nov-19 15:33N 51°26' E 002°01'1616.3
2014-Nov-19 14:33N 51°22' E 002°27'1414.0
2014-Nov-19 13:33N 51°22' E 002°49'1413.6
2014-Nov-19 12:33N 51°23' E 003°11'3 2.9
2014-Nov-19 11:33N 51°20' E 003°13'1 1.2
2014-Nov-19 10:30N 51°19' E 003°14'0 0.0
2014-Nov-19 09:27N 51°19' E 003°14'0 0.0
2014-Nov-19 08:33N 51°19' E 003°14'0 0.0
2014-Nov-19 07:30N 51°19' E 003°14'0 0.0
2014-Nov-19 06:30N 51°19' E 003°14'0 0.0
2014-Nov-19 05:30N 51°19' E 003°14'0 0.0
2014-Nov-19 04:27N 51°19' E 003°14'0 0.0
2014-Nov-19 03:33N 51°19' E 003°14'0 0.0
2014-Nov-19 02:33N 51°19' E 003°14'0 0.0
2014-Nov-19 01:30N 51°19' E 003°14'0 0.0
2014-Nov-18 23:27N 51°19' E 003°14'0 0.0
2014-Nov-18 21:06N 51°19' E 003°14'0 0.0
2014-Nov-18 20:30N 51°19' E 003°14'0 0.0
2014-Nov-18 19:21N 51°19' E 003°14'0 0.0
2014-Nov-18 18:33N 51°19' E 003°14'0 0.0
2014-Nov-18 17:33N 51°19' E 003°14'0 0.0
2014-Nov-18 16:33N 51°19' E 003°14'0 0.0
2014-Nov-18 15:33N 51°19' E 003°14'0 0.0
2014-Nov-18 14:27N 51°19' E 003°14'0 0.0
2014-Nov-18 13:33N 51°19' E 003°14'0 0.0
2014-Nov-18 12:27N 51°19' E 003°14'0 0.0
2014-Nov-18 11:33N 51°19' E 003°14'0 0.0
2014-Nov-18 10:24N 51°19' E 003°14'0 0.0
2014-Nov-18 09:33N 51°19' E 003°14'0 0.0
2014-Nov-18 08:30N 51°19' E 003°14'0 0.0
2014-Nov-18 07:33N 51°19' E 003°14'0 0.0
2014-Nov-18 06:30N 51°19' E 003°14'0 0.0
2014-Nov-18 05:33N 51°19' E 003°14'0 0.0
2014-Nov-18 04:24N 51°19' E 003°14'0 0.0
2014-Nov-18 03:27N 51°19' E 003°14'0 0.0
2014-Nov-18 02:33N 51°19' E 003°14'0 0.0
2014-Nov-18 01:33N 51°19' E 003°14'0 0.0
2014-Nov-17 23:33N 51°19' E 003°14'0 0.1
2014-Nov-17 21:31N 51°19' E 003°13'1 1.1
2014-Nov-17 20:33N 51°20' E 003°13'5 5.3
2014-Nov-17 19:33N 51°24' E 003°07'1413.3
2014-Nov-17 18:31N 51°24' E 002°45'6 5.6
2014-Nov-17 17:31N 51°27' E 002°38'0 0.0
2014-Nov-17 16:25N 51°27' E 002°38'0 0.0
2014-Nov-17 15:31N 51°27' E 002°38'0 0.0
2014-Nov-17 14:31N 51°27' E 002°38'0 0.0
2014-Nov-17 13:31N 51°27' E 002°38'5 4.3
2014-Nov-17 12:24N 51°32' E 002°41'9916.8
2014-Nov-17 06:29N 52°58' E 003°60'1818.7
2014-Nov-17 05:30N 53°10' E 004°23'1718.0
2014-Nov-17 04:33N 53°25' E 004°35'1717.4
2014-Nov-17 03:34N 53°34' E 005°01'1717.3
2014-Nov-17 02:34N 53°39' E 005°28'1717.0
2014-Nov-17 01:33N 53°45' E 005°55'1716.8
2014-Nov-17 00:33N 53°50' E 006°23'2317.4
2014-Nov-16 23:16N 53°55' E 006°60'1517.8
2014-Nov-16 22:25N 53°59' E 007°24'1315.1
2014-Nov-16 21:33N 53°54' E 007°45'1414.5
2014-Nov-16 20:33N 53°48' E 008°08'1616.3
2014-Nov-16 19:33N 53°37' E 008°28'4 4.2
2014-Nov-16 18:31N 53°34' E 008°33'0 0.4
2014-Nov-16 17:32N 53°35' E 008°33'0 0.0
2014-Nov-16 16:32N 53°35' E 008°33'0 0.0
2014-Nov-16 15:32N 53°35' E 008°33'0 0.0
2014-Nov-16 14:32N 53°35' E 008°33'0 0.0
2014-Nov-16 13:32N 53°35' E 008°33'0 0.0
2014-Nov-16 12:32N 53°35' E 008°33'0 0.0
2014-Nov-16 11:32N 53°35' E 008°33'0 0.0
2014-Nov-16 10:32N 53°35' E 008°33'0 0.0
2014-Nov-16 09:32N 53°35' E 008°33'0 0.0
2014-Nov-16 08:32N 53°35' E 008°33'0 0.0
2014-Nov-16 07:32N 53°35' E 008°33'0 0.0
2014-Nov-16 06:32N 53°35' E 008°33'0 0.0
2014-Nov-16 05:32N 53°35' E 008°33'0 0.0
2014-Nov-16 04:32N 53°35' E 008°33'0 0.0
2014-Nov-16 03:32N 53°35' E 008°33'0 0.0
2014-Nov-16 02:32N 53°35' E 008°33'0 0.0
2014-Nov-16 01:32N 53°35' E 008°33'0 0.0
2014-Nov-16 00:32N 53°35' E 008°33'0 0.4
2014-Nov-15 23:33N 53°34' E 008°33'5 5.5
2014-Nov-15 22:33N 53°38' E 008°26'1212.4
2014-Nov-15 21:33N 53°46' E 008°10'1212.3
2014-Nov-15 20:33N 53°52' E 007°52'3 2.7
2014-Nov-15 19:33N 53°54' E 007°50'0 0.0
2014-Nov-15 18:30N 53°55' E 007°50'0 0.0
2014-Nov-15 17:33N 53°55' E 007°50'0 0.0
2014-Nov-15 16:33N 53°55' E 007°50'0 0.0
2014-Nov-15 15:33N 53°55' E 007°50'0 0.0
2014-Nov-15 14:30N 53°55' E 007°50'0 0.1
2014-Nov-15 13:33N 53°54' E 007°50'0 0.1
2014-Nov-15 12:30N 53°55' E 007°50'0 0.0
2014-Nov-15 11:33N 53°55' E 007°50'0 0.1
2014-Nov-15 10:33N 53°54' E 007°50'0 0.0
2014-Nov-15 09:30N 53°55' E 007°50'0 0.1
2014-Nov-15 08:30N 53°55' E 007°50'0 0.0
2014-Nov-15 07:33N 53°55' E 007°50'0 0.0
2014-Nov-15 06:33N 53°54' E 007°50'0 0.1
2014-Nov-15 05:30N 53°55' E 007°50'0 0.0
2014-Nov-15 04:30N 53°55' E 007°50'0 0.1
2014-Nov-15 03:33N 53°54' E 007°50'0 0.0
2014-Nov-15 02:33N 53°54' E 007°50'0 0.1
2014-Nov-15 01:27N 53°55' E 007°50'0 0.0
2014-Nov-15 00:33N 53°55' E 007°50'2 1.6
2014-Nov-14 23:33N 53°55' E 007°47'1413.2
2014-Nov-14 22:29N 53°53' E 007°24'1817.9
2014-Nov-14 21:28N 53°49' E 006°53'1617.4
2014-Nov-14 20:33N 53°46' E 006°27'1717.2
2014-Nov-14 19:33N 53°41' E 005°59'1717.2
2014-Nov-14 18:33N 53°36' E 005°32'1717.1
2014-Nov-14 17:33N 53°30' E 005°05'1716.7
2014-Nov-14 16:33N 53°21' E 004°40'1717.0
2014-Nov-14 15:33N 53°06' E 004°27'1716.9
2014-Nov-14 14:33N 52°51' E 004°15'3316.6
2014-Nov-14 12:33N 52°27' E 003°36'1717.0
2014-Nov-14 11:32N 52°15' E 003°16'3817.7
2014-Nov-14 09:21N 51°45' E 002°37'1417.9
2014-Nov-14 08:33N 51°35' E 002°20'1818.4
2014-Nov-14 07:33N 51°19' E 002°06'1918.5
2014-Nov-14 06:33N 51°06' E 001°44'2120.6
2014-Nov-14 05:33N 50°50' E 001°25'1919.3
2014-Nov-14 04:33N 50°34' E 001°07'1918.1
2014-Nov-14 03:29N 50°26' E 000°39'5518.6
2014-Nov-14 00:33N 50°19' W 000°46'2219.7
2014-Nov-13 23:27N 50°21' W 001°19'3619.1
2014-Nov-13 21:33N 50°22' W 002°16'1917.9
2014-Nov-13 20:30N 50°24' W 002°46'1717.5
2014-Nov-13 19:34N 50°24' W 003°12'1010.0
2014-Nov-13 18:33N 50°22' W 003°27'1312.9
2014-Nov-13 17:33N 50°09' W 003°31'75815.8
2014-Nov-11 17:32N 38°17' W 009°32'1414.4
2014-Nov-11 16:32N 38°06' W 009°21'3 3.5
2014-Nov-11 15:33N 38°03' W 009°18'8 8.3
2014-Nov-11 14:33N 37°58' W 009°10'2 1.8
2014-Nov-11 13:33N 37°59' W 009°12'3 2.7
2014-Nov-11 12:32N 38°00' W 009°15'3 2.7
2014-Nov-11 11:33N 38°02' W 009°17'  
Track history (hours):
 
Tides and Currents Weather Stations Pressure Air Temp Water Temp Dewpoint Dewpoint Depression Visibility Wind Speed Wind Dir Waves Ship Positions

Grand Ruby

Last reported at 2014-Nov-21 11:27 UTC. Time now 2014-Nov-29 02:30 UTC.
Position N 47°33' W 005°38'.

Length 200 m; draft 9.3 m.

Type: Cargo ship. MMSI: 372399000.

Date/timePositionNaut miles runAvg speedWind from/ knotsBaromVisibWave heightAir tempDewpointWater temp
2014-Nov-21 11:27N 47°33' W 005°38'1516.4
2014-Nov-21 10:33N 47°47' W 005°45'1615.9
2014-Nov-21 09:33N 48°03' W 005°52'16515.0
2014-Nov-20 22:32N 50°00' W 002°56'1717.7
2014-Nov-20 21:33N 50°05' W 002°30'2216.0
2014-Nov-20 20:10N 50°11' W 001°56'2514.2
2014-Nov-20 18:23N 50°21' W 001°20'1214.6
2014-Nov-20 17:33N 50°30' W 001°07'1211.9
2014-Nov-20 16:33N 50°41' W 000°58'1110.6
2014-Nov-20 15:34N 50°46' W 001°13'8 8.1
2014-Nov-20 14:33N 50°52' W 001°22'2 2.1
2014-Nov-20 13:31N 50°53' W 001°24'0 0.0
2014-Nov-20 12:31N 50°53' W 001°24'0 0.0
2014-Nov-20 11:31N 50°53' W 001°24'0 0.0
2014-Nov-20 10:31N 50°53' W 001°24'0 0.0
2014-Nov-20 09:31N 50°53' W 001°24'0 0.0
2014-Nov-20 08:31N 50°53' W 001°24'0 0.0
2014-Nov-20 07:31N 50°53' W 001°24'0 0.0
2014-Nov-20 06:31N 50°53' W 001°24'0 0.0
2014-Nov-20 05:31N 50°53' W 001°24'0 0.0
2014-Nov-20 04:31N 50°53' W 001°24'0 0.0
2014-Nov-20 03:31N 50°53' W 001°24'0 0.0
2014-Nov-20 02:31N 50°53' W 001°24'0 0.1
2014-Nov-20 01:33N 50°53' W 001°24'7 6.7
2014-Nov-20 00:33N 50°47' W 001°19'1414.0
2014-Nov-19 23:34N 50°42' W 000°58'1413.8
2014-Nov-19 22:33N 50°36' W 000°39'1918.9
2014-Nov-19 21:33N 50°33' W 000°10'1717.1
2014-Nov-19 20:33N 50°35' E 000°17'1615.8
2014-Nov-19 19:33N 50°40' E 000°41'1616.1
2014-Nov-19 18:33N 50°49' E 001°03'1817.8
2014-Nov-19 17:33N 50°59' E 001°25'2019.8
2014-Nov-19 16:34N 51°14' E 001°47'1514.6
2014-Nov-19 15:33N 51°26' E 002°01'1616.3
2014-Nov-19 14:33N 51°22' E 002°27'1414.0
2014-Nov-19 13:33N 51°22' E 002°49'1413.6
2014-Nov-19 12:33N 51°23' E 003°11'3 2.9
2014-Nov-19 11:33N 51°20' E 003°13'1 1.2
2014-Nov-19 10:30N 51°19' E 003°14'0 0.0
2014-Nov-19 09:27N 51°19' E 003°14'0 0.0
2014-Nov-19 08:33N 51°19' E 003°14'0 0.0
2014-Nov-19 07:30N 51°19' E 003°14'0 0.0
2014-Nov-19 06:30N 51°19' E 003°14'0 0.0
2014-Nov-19 05:30N 51°19' E 003°14'0 0.0
2014-Nov-19 04:27N 51°19' E 003°14'0 0.0
2014-Nov-19 03:33N 51°19' E 003°14'0 0.0
2014-Nov-19 02:33N 51°19' E 003°14'0 0.0
2014-Nov-19 01:30N 51°19' E 003°14'0 0.0
2014-Nov-18 23:27N 51°19' E 003°14'0 0.0
2014-Nov-18 21:06N 51°19' E 003°14'0 0.0
2014-Nov-18 20:30N 51°19' E 003°14'0 0.0
2014-Nov-18 19:21N 51°19' E 003°14'0 0.0
2014-Nov-18 18:33N 51°19' E 003°14'0 0.0
2014-Nov-18 17:33N 51°19' E 003°14'0 0.0
2014-Nov-18 16:33N 51°19' E 003°14'0 0.0
2014-Nov-18 15:33N 51°19' E 003°14'0 0.0
2014-Nov-18 14:27N 51°19' E 003°14'0 0.0
2014-Nov-18 13:33N 51°19' E 003°14'0 0.0
2014-Nov-18 12:27N 51°19' E 003°14'0 0.0
2014-Nov-18 11:33N 51°19' E 003°14'0 0.0
2014-Nov-18 10:24N 51°19' E 003°14'0 0.0
2014-Nov-18 09:33N 51°19' E 003°14'0 0.0
2014-Nov-18 08:30N 51°19' E 003°14'0 0.0
2014-Nov-18 07:33N 51°19' E 003°14'0 0.0
2014-Nov-18 06:30N 51°19' E 003°14'0 0.0
2014-Nov-18 05:33N 51°19' E 003°14'0 0.0
2014-Nov-18 04:24N 51°19' E 003°14'0 0.0
2014-Nov-18 03:27N 51°19' E 003°14'0 0.0
2014-Nov-18 02:33N 51°19' E 003°14'0 0.0
2014-Nov-18 01:33N 51°19' E 003°14'0 0.0
2014-Nov-17 23:33N 51°19' E 003°14'0 0.1
2014-Nov-17 21:31N 51°19' E 003°13'1 1.1
2014-Nov-17 20:33N 51°20' E 003°13'5 5.3
2014-Nov-17 19:33N 51°24' E 003°07'1413.3
2014-Nov-17 18:31N 51°24' E 002°45'6 5.6
2014-Nov-17 17:31N 51°27' E 002°38'0 0.0
2014-Nov-17 16:25N 51°27' E 002°38'0 0.0
2014-Nov-17 15:31N 51°27' E 002°38'0 0.0
2014-Nov-17 14:31N 51°27' E 002°38'0 0.0
2014-Nov-17 13:31N 51°27' E 002°38'5 4.3
2014-Nov-17 12:24N 51°32' E 002°41'9916.8
2014-Nov-17 06:29N 52°58' E 003°60'1818.7
2014-Nov-17 05:30N 53°10' E 004°23'1718.0
2014-Nov-17 04:33N 53°25' E 004°35'1717.4
2014-Nov-17 03:34N 53°34' E 005°01'1717.3
2014-Nov-17 02:34N 53°39' E 005°28'1717.0
2014-Nov-17 01:33N 53°45' E 005°55'1716.8
2014-Nov-17 00:33N 53°50' E 006°23'2317.4
2014-Nov-16 23:16N 53°55' E 006°60'1517.8
2014-Nov-16 22:25N 53°59' E 007°24'1315.1
2014-Nov-16 21:33N 53°54' E 007°45'1414.5
2014-Nov-16 20:33N 53°48' E 008°08'1616.3
2014-Nov-16 19:33N 53°37' E 008°28'4 4.2
2014-Nov-16 18:31N 53°34' E 008°33'0 0.4
2014-Nov-16 17:32N 53°35' E 008°33'0 0.0
2014-Nov-16 16:32N 53°35' E 008°33'0 0.0
2014-Nov-16 15:32N 53°35' E 008°33'0 0.0
2014-Nov-16 14:32N 53°35' E 008°33'0 0.0
2014-Nov-16 13:32N 53°35' E 008°33'0 0.0
2014-Nov-16 12:32N 53°35' E 008°33'0 0.0
2014-Nov-16 11:32N 53°35' E 008°33'0 0.0
2014-Nov-16 10:32N 53°35' E 008°33'0 0.0
2014-Nov-16 09:32N 53°35' E 008°33'0 0.0
2014-Nov-16 08:32N 53°35' E 008°33'0 0.0
2014-Nov-16 07:32N 53°35' E 008°33'0 0.0
2014-Nov-16 06:32N 53°35' E 008°33'0 0.0
2014-Nov-16 05:32N 53°35' E 008°33'0 0.0
2014-Nov-16 04:32N 53°35' E 008°33'0 0.0
2014-Nov-16 03:32N 53°35' E 008°33'0 0.0
2014-Nov-16 02:32N 53°35' E 008°33'0 0.0
2014-Nov-16 01:32N 53°35' E 008°33'0 0.0
2014-Nov-16 00:32N 53°35' E 008°33'0 0.4
2014-Nov-15 23:33N 53°34' E 008°33'5 5.5
2014-Nov-15 22:33N 53°38' E 008°26'1212.4
2014-Nov-15 21:33N 53°46' E 008°10'1212.3
2014-Nov-15 20:33N 53°52' E 007°52'3 2.7
2014-Nov-15 19:33N 53°54' E 007°50'0 0.0
2014-Nov-15 18:30N 53°55' E 007°50'0 0.0
2014-Nov-15 17:33N 53°55' E 007°50'0 0.0
2014-Nov-15 16:33N 53°55' E 007°50'0 0.0
2014-Nov-15 15:33N 53°55' E 007°50'0 0.0
2014-Nov-15 14:30N 53°55' E 007°50'0 0.1
2014-Nov-15 13:33N 53°54' E 007°50'0 0.1
2014-Nov-15 12:30N 53°55' E 007°50'0 0.0
2014-Nov-15 11:33N 53°55' E 007°50'0 0.1
2014-Nov-15 10:33N 53°54' E 007°50'0 0.0
2014-Nov-15 09:30N 53°55' E 007°50'0 0.1
2014-Nov-15 08:30N 53°55' E 007°50'0 0.0
2014-Nov-15 07:33N 53°55' E 007°50'0 0.0
2014-Nov-15 06:33N 53°54' E 007°50'0 0.1
2014-Nov-15 05:30N 53°55' E 007°50'0 0.0
2014-Nov-15 04:30N 53°55' E 007°50'0 0.1
2014-Nov-15 03:33N 53°54' E 007°50'0 0.0
2014-Nov-15 02:33N 53°54' E 007°50'0 0.1
2014-Nov-15 01:27N 53°55' E 007°50'0 0.0
2014-Nov-15 00:33N 53°55' E 007°50'2 1.6
2014-Nov-14 23:33N 53°55' E 007°47'1413.2
2014-Nov-14 22:29N 53°53' E 007°24'1817.9
2014-Nov-14 21:28N 53°49' E 006°53'1617.4
2014-Nov-14 20:33N 53°46' E 006°27'1717.2
2014-Nov-14 19:33N 53°41' E 005°59'1717.2
2014-Nov-14 18:33N 53°36' E 005°32'1717.1
2014-Nov-14 17:33N 53°30' E 005°05'1716.7
2014-Nov-14 16:33N 53°21' E 004°40'1717.0
2014-Nov-14 15:33N 53°06' E 004°27'1716.9
2014-Nov-14 14:33N 52°51' E 004°15'3316.6
2014-Nov-14 12:33N 52°27' E 003°36'1717.0
2014-Nov-14 11:32N 52°15' E 003°16'3817.7
2014-Nov-14 09:21N 51°45' E 002°37'1417.9
2014-Nov-14 08:33N 51°35' E 002°20'1818.4
2014-Nov-14 07:33N 51°19' E 002°06'1918.5
2014-Nov-14 06:33N 51°06' E 001°44'2120.6
2014-Nov-14 05:33N 50°50' E 001°25'1919.3
2014-Nov-14 04:33N 50°34' E 001°07'1918.1
2014-Nov-14 03:29N 50°26' E 000°39'5518.6
2014-Nov-14 00:33N 50°19' W 000°46'2219.7
2014-Nov-13 23:27N 50°21' W 001°19'3619.1
2014-Nov-13 21:33N 50°22' W 002°16'1917.9
2014-Nov-13 20:30N 50°24' W 002°46'1717.5
2014-Nov-13 19:34N 50°24' W 003°12'1010.0
2014-Nov-13 18:33N 50°22' W 003°27'1312.9
2014-Nov-13 17:33N 50°09' W 003°31'75815.8
2014-Nov-11 17:32N 38°17' W 009°32'1414.4
2014-Nov-11 16:32N 38°06' W 009°21'3 3.5
2014-Nov-11 15:33N 38°03' W 009°18'8 8.3
2014-Nov-11 14:33N 37°58' W 009°10'2 1.8
2014-Nov-11 13:33N 37°59' W 009°12'3 2.7
2014-Nov-11 12:32N 38°00' W 009°15'3 2.7
2014-Nov-11 11:33N 38°02' W 009°17'  

Dump ship's entire track history